Time;durP1;ratioP1;P1;durP2;ratioP2;P2;SDS_P1;SDS_P2;PMS_P1;PMS_P2;Temp;Humidity;BMP_temperature;BMP_pressure;BME280_temperature;BME280_humidity;BME280_pressure;Samples;Min_cycle;Max_cycle;Signal;HPM_P1;HPM_P2
2023/11/28 00:01:18;;;;;;;9.60;3.55;;;2.30;83.10;;;;;;4829762;29;20051;-86
2023/11/28 00:03:46;;;;;;;10.98;4.10;;;2.40;83.00;;;;;;4831486;29;20272;-86
2023/11/28 00:06:20;;;;;;;10.83;4.07;;;2.40;82.70;;;;;;4828850;29;20065;-86
2023/11/28 00:08:47;;;;;;;9.55;4.63;;;2.40;82.90;;;;;;4829865;29;20580;-86
2023/11/28 00:11:19;;;;;;;10.02;4.10;;;2.40;82.90;;;;;;4820138;29;20047;-86
2023/11/28 00:13:46;;;;;;;10.45;4.13;;;2.40;82.90;;;;;;4811166;29;20475;-86
2023/11/28 00:16:14;;;;;;;9.73;3.78;;;2.40;82.80;;;;;;4831927;29;20153;-83
2023/11/28 00:18:41;;;;;;;10.43;3.97;;;2.40;82.90;;;;;;4829216;29;20137;-83
2023/11/28 00:21:08;;;;;;;9.88;3.90;;;2.30;82.90;;;;;;4844201;29;20042;-84
2023/11/28 00:23:35;;;;;;;10.43;3.90;;;2.30;83.10;;;;;;4815332;29;20099;-84
2023/11/28 00:26:03;;;;;;;8.77;3.35;;;2.30;83.30;;;;;;4817925;29;20039;-85
2023/11/28 00:28:30;;;;;;;8.57;3.35;;;2.40;83.20;;;;;;4820842;29;20069;-85
2023/11/28 00:30:57;;;;;;;10.80;3.33;;;2.50;82.80;;;;;;4816398;29;20046;-85
2023/11/28 00:33:24;;;;;;;8.40;3.05;;;2.50;82.50;;;;;;4828488;29;20038;-84
2023/11/28 00:35:54;;;;;;;9.07;2.92;;;2.50;82.50;;;;;;4806254;29;20039;-85
2023/11/28 00:38:21;;;;;;;10.23;3.20;;;2.50;82.60;;;;;;4830026;29;20042;-86
2023/11/28 00:40:48;;;;;;;8.23;3.17;;;2.60;82.30;;;;;;4817542;29;20042;-86
2023/11/28 00:43:16;;;;;;;8.13;2.80;;;2.50;82.30;;;;;;4816374;29;20082;-85
2023/11/28 00:45:43;;;;;;;7.30;2.70;;;2.50;82.30;;;;;;4819545;29;20046;-86
2023/11/28 00:48:10;;;;;;;6.78;2.25;;;2.50;82.20;;;;;;4809064;29;20752;-86
2023/11/28 00:50:37;;;;;;;8.02;2.45;;;2.60;82.20;;;;;;4816456;29;20125;-85
2023/11/28 00:53:04;;;;;;;7.35;2.40;;;2.70;82.00;;;;;;4814942;29;20046;-85
2023/11/28 00:55:31;;;;;;;8.50;2.57;;;2.70;81.70;;;;;;4810987;29;20082;-86
2023/11/28 00:57:58;;;;;;;8.05;2.30;;;2.70;81.50;;;;;;4816367;29;20046;-85
2023/11/28 01:00:25;;;;;;;6.35;2.15;;;2.70;81.40;;;;;;4813912;29;20043;-85
2023/11/28 01:02:52;;;;;;;6.00;1.90;;;2.80;81.50;;;;;;4841630;29;20378;-85
2023/11/28 01:05:20;;;;;;;7.15;2.03;;;2.80;81.40;;;;;;4818378;29;20145;-85
2023/11/28 01:07:48;;;;;;;6.27;2.03;;;2.80;81.30;;;;;;4839244;29;20062;-85
2023/11/28 01:10:15;;;;;;;6.88;2.30;;;2.80;81.30;;;;;;4830106;29;20070;-85
2023/11/28 01:12:42;;;;;;;6.88;2.28;;;2.80;81.30;;;;;;4826558;29;20460;-85
2023/11/28 01:15:10;;;;;;;6.35;2.08;;;2.80;81.10;;;;;;4817095;29;20058;-85
2023/11/28 01:17:37;;;;;;;6.97;1.92;;;2.90;81.30;;;;;;4813567;29;20108;-86
2023/11/28 01:20:05;;;;;;;5.53;1.80;;;2.90;81.00;;;;;;4843946;29;20042;-85
2023/11/28 01:22:32;;;;;;;7.65;2.30;;;3.00;80.90;;;;;;4820613;29;20047;-84
2023/11/28 01:24:59;;;;;;;5.47;2.03;;;3.00;80.60;;;;;;4805639;29;20053;-84
2023/11/28 01:27:26;;;;;;;6.03;1.80;;;3.00;80.60;;;;;;4830636;29;20447;-85
2023/11/28 01:29:53;;;;;;;4.85;1.77;;;3.00;80.50;;;;;;4817676;29;20055;-85
2023/11/28 01:32:21;;;;;;;7.27;2.17;;;3.00;80.50;;;;;;4828941;29;20058;-86
2023/11/28 01:34:49;;;;;;;5.85;1.80;;;3.00;80.30;;;;;;4815270;29;20046;-85
2023/11/28 01:37:18;;;;;;;6.30;1.90;;;3.00;80.20;;;;;;4812275;29;20066;-85
2023/11/28 01:39:45;;;;;;;4.40;1.42;;;3.00;80.20;;;;;;4821627;29;20084;-84
2023/11/28 01:42:12;;;;;;;4.82;1.55;;;3.00;80.00;;;;;;4813834;29;20520;-85
2023/11/28 01:44:41;;;;;;;5.20;1.93;;;3.00;80.00;;;;;;4826895;29;20386;-83
2023/11/28 01:47:08;;;;;;;5.55;1.75;;;3.00;79.80;;;;;;4814251;29;20524;-84
2023/11/28 01:49:37;;;;;;;5.18;1.63;;;3.10;79.90;;;;;;4819587;29;20115;-84
2023/11/28 01:52:05;;;;;;;5.85;1.80;;;3.10;79.70;;;;;;4820193;29;20081;-84
2023/11/28 01:54:33;;;;;;;6.32;1.95;;;3.10;79.60;;;;;;4846032;29;20057;-84
2023/11/28 01:57:01;;;;;;;6.07;1.97;;;3.10;79.60;;;;;;4816598;29;20417;-83
2023/11/28 01:59:31;;;;;;;6.78;1.80;;;3.20;79.50;;;;;;4829362;29;20134;-84
2023/11/28 02:01:58;;;;;;;5.85;1.90;;;3.20;79.50;;;;;;4827099;29;20045;-86
2023/11/28 02:04:26;;;;;;;7.05;2.28;;;3.20;79.60;;;;;;4829389;29;20043;-86
2023/11/28 02:06:53;;;;;;;9.80;3.30;;;3.20;79.50;;;;;;4806999;29;20050;-86
2023/11/28 02:09:20;;;;;;;12.50;4.80;;;3.20;79.60;;;;;;4820171;29;20046;-86
2023/11/28 02:11:48;;;;;;;14.57;5.78;;;3.10;79.70;;;;;;4813920;29;20103;-85
2023/11/28 02:14:15;;;;;;;14.65;6.38;;;3.10;79.90;;;;;;4845064;29;20054;-86
2023/11/28 02:16:42;;;;;;;16.08;6.70;;;3.00;80.30;;;;;;4817037;29;20523;-86
2023/11/28 02:19:09;;;;;;;17.48;7.88;;;3.00;80.60;;;;;;4824191;29;20058;-85
2023/11/28 02:21:36;;;;;;;18.17;8.37;;;2.90;80.80;;;;;;4833650;29;20565;-84
2023/11/28 02:24:06;;;;;;;21.55;9.05;;;2.90;81.00;;;;;;4822094;29;20046;-85
2023/11/28 02:26:33;;;;;;;26.08;10.55;;;2.90;81.30;;;;;;4833770;29;20117;-85
2023/11/28 02:29:00;;;;;;;27.67;11.25;;;2.80;81.50;;;;;;4818451;29;20095;-85
2023/11/28 02:31:27;;;;;;;26.08;11.23;;;2.70;81.70;;;;;;4809940;29;20062;-85
2023/11/28 02:33:55;;;;;;;24.50;10.23;;;2.70;82.00;;;;;;4821318;29;20103;-85
2023/11/28 02:36:22;;;;;;;22.63;9.75;;;2.70;82.30;;;;;;4819951;29;20126;-85
2023/11/28 02:38:51;;;;;;;21.17;9.07;;;2.70;82.40;;;;;;4849997;29;20049;-85
2023/11/28 02:41:18;;;;;;;21.38;8.88;;;2.80;82.20;;;;;;4815225;29;20106;-85
2023/11/28 02:43:45;;;;;;;23.52;10.00;;;2.80;82.20;;;;;;4819688;29;20505;-85
2023/11/28 02:46:12;;;;;;;22.63;9.87;;;2.80;82.00;;;;;;4818516;29;20137;-85
2023/11/28 02:48:40;;;;;;;22.02;9.55;;;2.80;82.10;;;;;;4818506;29;20054;-84
2023/11/28 02:51:11;;;;;;;23.55;10.07;;;2.70;82.00;;;;;;4821993;29;20050;-84
2023/11/28 02:53:38;;;;;;;21.50;9.55;;;2.70;82.10;;;;;;4804854;29;20046;-85
2023/11/28 02:56:06;;;;;;;22.08;10.60;;;2.70;82.30;;;;;;4845657;29;20103;-84
2023/11/28 02:58:33;;;;;;;23.60;10.37;;;2.80;82.30;;;;;;4816138;29;20129;-87
2023/11/28 03:01:00;;;;;;;23.80;10.02;;;2.80;82.10;;;;;;4833667;29;20070;-87
2023/11/28 03:03:27;;;;;;;23.88;10.52;;;2.80;82.20;;;;;;4816647;29;20147;-87
2023/11/28 03:05:54;;;;;;;21.52;9.90;;;2.90;82.00;;;;;;4828732;29;20089;-87
2023/11/28 03:08:23;;;;;;;23.63;9.68;;;2.90;82.00;;;;;;4816817;29;20046;-86
2023/11/28 03:10:50;;;;;;;23.17;9.83;;;2.90;81.90;;;;;;4816495;29;20077;-86
2023/11/28 03:13:19;;;;;;;22.98;9.80;;;2.90;81.80;;;;;;4801353;29;20054;-87
2023/11/28 03:15:47;;;;;;;20.95;9.15;;;2.90;81.90;;;;;;4846826;29;20409;-85
2023/11/28 03:18:14;;;;;;;22.77;10.18;;;2.90;81.60;;;;;;4814415;29;20049;-92
2023/11/28 03:20:41;;;;;;;21.42;9.15;;;3.00;81.70;;;;;;4820290;29;20134;-93
2023/11/28 03:23:08;;;;;;;22.00;9.87;;;3.00;81.60;;;;;;4822239;29;20571;-89
2023/11/28 03:25:35;;;;;;;23.55;10.43;;;3.10;81.50;;;;;;4838190;29;20038;-89
2023/11/28 03:28:03;;;;;;;23.60;10.23;;;3.10;81.20;;;;;;4822418;29;20050;-88
2023/11/28 03:30:30;;;;;;;20.98;9.85;;;3.20;81.00;;;;;;4833700;29;20076;-88
2023/11/28 03:32:57;;;;;;;23.23;11.10;;;3.20;80.80;;;;;;4816184;29;20089;-89
2023/11/28 03:35:27;;;;;;;22.47;9.33;;;3.20;80.70;;;;;;4835558;29;20057;-89
2023/11/28 03:37:54;;;;;;;22.48;8.93;;;3.20;80.60;;;;;;4834775;29;20043;-90
2023/11/28 03:40:21;;;;;;;21.27;9.57;;;3.10;80.70;;;;;;4854022;29;20038;-90
2023/11/28 03:42:48;;;;;;;21.27;8.43;;;3.10;81.00;;;;;;4841820;29;20107;-91
2023/11/28 03:45:15;;;;;;;20.50;9.68;;;3.20;80.80;;;;;;4836492;29;20568;-90
2023/11/28 03:47:42;;;;;;;17.67;8.10;;;3.20;80.80;;;;;;4807448;29;20058;-89
2023/11/28 03:50:10;;;;;;;19.80;8.90;;;3.30;80.50;;;;;;4825377;29;20082;-89
2023/11/28 03:52:38;;;;;;;19.63;9.30;;;3.30;80.40;;;;;;4849658;29;20061;-90
2023/11/28 03:55:05;;;;;;;20.73;9.00;;;3.30;80.40;;;;;;4823251;29;20057;-90
2023/11/28 03:57:32;;;;;;;21.17;8.90;;;3.40;80.30;;;;;;4827476;29;20505;-88
2023/11/28 03:59:59;;;;;;;23.53;10.30;;;3.40;80.20;;;;;;4829166;29;20046;-88
2023/11/28 04:02:26;;;;;;;24.48;9.70;;;3.40;80.20;;;;;;4811767;29;20074;-93
2023/11/28 04:04:54;;;;;;;22.90;10.75;;;3.30;80.20;;;;;;4855898;29;20065;-93
2023/11/28 04:07:21;;;;;;;22.60;11.23;;;3.30;80.40;;;;;;4824719;29;20084;-91
2023/11/28 04:09:48;;;;;;;23.30;9.90;;;3.30;80.40;;;;;;4807728;29;20065;-93
2023/11/28 04:12:15;;;;;;;23.27;10.63;;;3.30;80.40;;;;;;4812338;29;20129;-93
2023/11/28 04:14:43;;;;;;;25.48;10.85;;;3.30;80.40;;;;;;4825852;29;20051;-93
2023/11/28 04:17:11;;;;;;;26.05;11.57;;;3.30;80.40;;;;;;4825685;29;20110;-93
2023/11/28 04:19:40;;;;;;;22.45;10.57;;;3.20;80.30;;;;;;4811067;29;20081;-93
2023/11/28 04:22:10;;;;;;;26.35;12.30;;;3.20;80.50;;;;;;4823627;29;20402;-92
2023/11/28 04:24:37;;;;;;;24.17;11.07;;;3.20;80.40;;;;;;4799490;29;20066;-86
2023/11/28 04:27:05;;;;;;;24.70;10.65;;;3.20;80.40;;;;;;4830297;29;20053;-87
2023/11/28 04:29:32;;;;;;;25.10;11.93;;;3.20;80.40;;;;;;4814249;29;20055;-88
2023/11/28 04:31:59;;;;;;;27.27;11.90;;;3.30;80.40;;;;;;4818363;29;20042;-88
2023/11/28 04:34:26;;;;;;;26.83;12.57;;;3.30;80.30;;;;;;4812347;29;20045;-87
2023/11/28 04:36:53;;;;;;;26.47;13.40;;;3.20;80.20;;;;;;4797106;29;20101;-86
2023/11/28 04:39:21;;;;;;;25.15;12.40;;;3.20;80.40;;;;;;4802651;29;20532;-86
2023/11/28 04:41:52;;;;;;;27.00;12.13;;;3.20;80.50;;;;;;4815225;29;20047;-89
2023/11/28 04:44:19;;;;;;;26.90;12.27;;;3.20;80.40;;;;;;4815123;29;20133;-85
2023/11/28 04:46:46;;;;;;;27.55;12.80;;;3.10;80.40;;;;;;4812812;29;20046;-88
2023/11/28 04:49:14;;;;;;;26.73;11.23;;;3.10;80.70;;;;;;4817181;29;20062;-89
2023/11/28 04:51:41;;;;;;;26.80;12.57;;;3.10;80.70;;;;;;4804132;29;20049;-89
2023/11/28 04:54:09;;;;;;;26.38;12.18;;;3.00;80.70;;;;;;4818701;29;20051;-88
2023/11/28 04:56:36;;;;;;;27.92;13.15;;;3.00;80.70;;;;;;4823843;29;20039;-88
2023/11/28 04:59:03;;;;;;;26.80;12.38;;;3.00;80.90;;;;;;4816277;29;20074;-88
2023/11/28 05:01:30;;;;;;;23.37;11.53;;;3.00;80.90;;;;;;4796764;29;20043;-88
2023/11/28 05:03:58;;;;;;;28.42;12.55;;;3.00;80.90;;;;;;4814792;29;20049;-88
2023/11/28 05:06:25;;;;;;;25.20;11.30;;;3.10;80.90;;;;;;4822713;29;20561;-89
2023/11/28 05:08:53;;;;;;;26.65;12.30;;;3.10;80.90;;;;;;4812696;29;20051;-89
2023/11/28 05:11:20;;;;;;;22.75;11.30;;;3.20;80.70;;;;;;4817674;29;20054;-89
2023/11/28 05:13:47;;;;;;;23.80;10.40;;;3.20;80.70;;;;;;4815815;29;20046;-89
2023/11/28 05:16:14;;;;;;;23.58;10.35;;;3.20;80.70;;;;;;4820487;29;20133;-89
2023/11/28 05:18:41;;;;;;;21.08;9.93;;;3.20;80.50;;;;;;4821841;29;20043;-88
2023/11/28 05:21:08;;;;;;;19.15;9.15;;;3.20;80.60;;;;;;4821343;29;20046;-88
2023/11/28 05:23:42;;;;;;;20.67;9.82;;;3.20;80.60;;;;;;4829790;29;20054;-88
2023/11/28 05:26:09;;;;;;;20.33;9.10;;;3.20;80.60;;;;;;4851511;29;20525;-88
2023/11/28 05:28:36;;;;;;;18.77;8.80;;;3.20;80.60;;;;;;4818705;29;20050;-87
2023/11/28 05:31:04;;;;;;;20.70;7.97;;;3.20;80.70;;;;;;4826056;29;20069;-87
2023/11/28 05:33:31;;;;;;;19.25;8.82;;;3.20;80.70;;;;;;4827089;29;20565;-88
2023/11/28 05:35:58;;;;;;;17.98;8.05;;;3.30;80.50;;;;;;4819265;29;20079;-87
2023/11/28 05:38:25;;;;;;;12.70;5.30;;;3.30;80.40;;;;;;4843842;29;20142;-88
2023/11/28 05:40:52;;;;;;;15.52;7.22;;;3.30;80.40;;;;;;4831060;29;20134;-88
2023/11/28 05:43:20;;;;;;;17.23;7.25;;;3.30;80.40;;;;;;4835565;29;20077;-87
2023/11/28 05:45:47;;;;;;;15.55;7.60;;;3.30;80.50;;;;;;4823320;29;20126;-88
2023/11/28 05:48:14;;;;;;;18.42;8.10;;;3.20;80.50;;;;;;4830841;29;20050;-88
2023/11/28 05:50:41;;;;;;;18.20;8.77;;;3.30;80.60;;;;;;4826914;29;20141;-87
2023/11/28 05:53:08;;;;;;;18.98;8.65;;;3.20;80.50;;;;;;4819464;29;20107;-87
2023/11/28 05:55:36;;;;;;;21.88;8.85;;;3.20;80.70;;;;;;4821130;29;20058;-89
2023/11/28 05:58:03;;;;;;;19.63;9.25;;;3.20;80.70;;;;;;4812349;29;20042;-93
2023/11/28 06:00:34;;;;;;;20.17;8.77;;;3.10;80.80;;;;;;4854035;29;20047;-92
2023/11/28 06:03:02;;;;;;;17.67;8.17;;;3.00;80.90;;;;;;4823458;29;20046;-92
2023/11/28 06:05:30;;;;;;;18.42;8.52;;;3.00;81.00;;;;;;4817932;29;20162;-89
2023/11/28 06:07:58;;;;;;;21.15;8.70;;;3.00;81.10;;;;;;4848001;29;20082;-86
2023/11/28 06:10:26;;;;;;;20.25;8.32;;;3.10;81.20;;;;;;4828457;29;20071;-86
2023/11/28 06:12:54;;;;;;;20.05;8.98;;;3.10;81.00;;;;;;4817763;29;20051;-86
2023/11/28 06:15:23;;;;;;;18.93;8.47;;;;;;;;;;4815087;29;20147;-87
2023/11/28 06:17:50;;;;;;;20.13;8.18;;;3.30;80.70;;;;;;4818775;29;20058;-88
2023/11/28 06:20:17;;;;;;;22.10;9.68;;;3.30;80.60;;;;;;4831055;29;20051;-88
2023/11/28 06:22:46;;;;;;;22.17;10.43;;;3.20;80.40;;;;;;4818655;29;20043;-88
2023/11/28 06:25:13;;;;;;;22.48;10.27;;;3.20;80.60;;;;;;4821183;29;20054;-88
2023/11/28 06:27:41;;;;;;;24.93;10.43;;;3.20;80.70;;;;;;4818700;29;20054;-89
2023/11/28 06:30:09;;;;;;;24.70;11.35;;;3.10;80.70;;;;;;4822335;29;20509;-90
2023/11/28 06:32:36;;;;;;;26.10;11.93;;;3.10;80.80;;;;;;4806678;29;20050;-89
2023/11/28 06:35:04;;;;;;;28.33;12.40;;;3.00;81.00;;;;;;4808843;29;20043;-90
2023/11/28 06:37:32;;;;;;;29.67;13.45;;;3.00;81.20;;;;;;4814339;29;20050;-89
2023/11/28 06:39:59;;;;;;;41.20;15.77;;;3.00;81.20;;;;;;4800153;29;20099;-90
2023/11/28 06:42:27;;;;;;;55.15;19.42;;;3.00;81.30;;;;;;4812995;29;20039;-90
2023/11/28 06:44:54;;;;;;;65.78;20.80;;;3.00;81.20;;;;;;4810323;29;20042;-90
2023/11/28 06:47:22;;;;;;;55.65;19.52;;;3.00;81.20;;;;;;4811891;29;20055;-89
2023/11/28 06:49:49;;;;;;;48.10;17.08;;;3.00;81.30;;;;;;4813544;29;20051;-89
2023/11/28 06:52:16;;;;;;;48.97;18.77;;;3.10;81.20;;;;;;4814340;29;20051;-91
2023/11/28 06:54:44;;;;;;;55.40;22.02;;;3.10;81.20;;;;;;4812150;29;20412;-89
2023/11/28 06:57:11;;;;;;;77.97;26.60;;;3.10;81.00;;;;;;4811858;29;20416;-89
2023/11/28 06:59:38;;;;;;;47.15;19.92;;;3.10;81.00;;;;;;4820806;29;20043;-88
2023/11/28 07:02:05;;;;;;;34.67;14.55;;;3.10;81.00;;;;;;4815745;29;20046;-88
2023/11/28 07:04:32;;;;;;;31.70;13.90;;;3.10;80.90;;;;;;4818497;29;20057;-88
2023/11/28 07:07:00;;;;;;;28.20;13.07;;;3.10;81.20;;;;;;4812525;29;20142;-90
2023/11/28 07:09:27;;;;;;;26.55;11.07;;;3.10;81.10;;;;;;4811470;29;20462;-89
2023/11/28 07:11:54;;;;;;;27.70;12.68;;;3.10;81.20;;;;;;4810014;29;20054;-90
2023/11/28 07:14:24;;;;;;;51.38;20.13;;;3.10;81.10;;;;;;4823530;29;20088;-88
2023/11/28 07:16:51;;;;;;;48.00;19.20;;;3.20;81.00;;;;;;4817131;29;20062;-88
2023/11/28 07:19:18;;;;;;;44.63;18.38;;;3.20;81.00;;;;;;4812324;29;20180;-88
2023/11/28 07:21:45;;;;;;;34.58;15.50;;;3.30;80.80;;;;;;4822716;29;20512;-88
2023/11/28 07:24:12;;;;;;;33.72;14.88;;;3.40;80.40;;;;;;4801029;29;20051;-88
2023/11/28 07:26:40;;;;;;;34.95;15.70;;;3.40;80.20;;;;;;4816294;29;20042;-93
2023/11/28 07:29:07;;;;;;;68.87;27.27;;;3.40;80.40;;;;;;4816039;29;20100;-90
2023/11/28 07:31:34;;;;;;;65.00;27.52;;;3.40;80.30;;;;;;4823726;29;20055;-90
2023/11/28 07:34:02;;;;;;;57.55;26.98;;;3.40;80.10;;;;;;4816199;29;20469;-90
2023/11/28 07:36:29;;;;;;;60.58;27.42;;;3.50;80.00;;;;;;4826221;29;20069;-90
2023/11/28 07:38:56;;;;;;;59.35;27.23;;;3.50;80.00;;;;;;4811072;29;20051;-89
2023/11/28 07:41:24;;;;;;;39.90;17.30;;;3.50;80.00;;;;;;4826044;29;20047;-90
2023/11/28 07:43:50;;;;;;;41.05;18.38;;;3.50;79.90;;;;;;4823394;29;20043;-90
2023/11/28 07:46:18;;;;;;;37.83;18.40;;;3.60;79.90;;;;;;4826091;29;20050;-90
2023/11/28 07:48:45;;;;;;;28.90;12.75;;;3.60;79.80;;;;;;4822946;29;20582;-90
2023/11/28 07:51:12;;;;;;;30.48;14.60;;;3.60;79.80;;;;;;4810704;29;20073;-91
2023/11/28 07:53:39;;;;;;;39.77;16.70;;;3.60;79.90;;;;;;4810890;29;20062;-89
2023/11/28 07:56:07;;;;;;;37.70;16.50;;;3.70;79.80;;;;;;4825692;29;20054;-90
2023/11/28 07:58:34;;;;;;;33.05;15.25;;;3.70;79.80;;;;;;4818228;29;20057;-90
2023/11/28 08:01:01;;;;;;;36.75;16.23;;;3.70;79.70;;;;;;4807695;29;20058;-90
2023/11/28 08:03:29;;;;;;;35.83;14.15;;;3.70;79.60;;;;;;4826082;29;20421;-95
2023/11/28 08:05:56;;;;;;;34.33;15.20;;;3.70;79.70;;;;;;4825749;29;20111;-90
2023/11/28 08:08:23;;;;;;;34.13;15.25;;;3.70;79.70;;;;;;4828465;29;20046;-91
2023/11/28 08:10:50;;;;;;;33.10;15.15;;;3.70;79.60;;;;;;4825865;29;20058;-91
2023/11/28 08:13:17;;;;;;;31.17;13.85;;;3.70;79.70;;;;;;4825002;29;20093;-91
2023/11/28 08:15:45;;;;;;;36.83;16.05;;;3.60;79.80;;;;;;4810580;29;20085;-91
2023/11/28 08:18:12;;;;;;;30.70;14.20;;;3.70;79.80;;;;;;4814070;29;20532;-92
2023/11/28 08:20:40;;;;;;;26.20;12.93;;;3.70;79.80;;;;;;4825812;29;20068;-91
2023/11/28 08:23:07;;;;;;;28.75;14.02;;;3.70;79.90;;;;;;4810944;29;20054;-91
2023/11/28 08:25:34;;;;;;;23.17;11.13;;;3.70;79.80;;;;;;4822823;29;20497;-91
2023/11/28 08:28:02;;;;;;;18.90;9.52;;;3.70;79.80;;;;;;4807231;29;20054;-92
2023/11/28 08:30:32;;;;;;;22.93;9.43;;;3.60;79.90;;;;;;4813575;29;20570;-91
2023/11/28 08:32:59;;;;;;;19.42;9.70;;;3.70;79.80;;;;;;4807503;29;20557;-91
2023/11/28 08:35:26;;;;;;;20.00;9.30;;;3.70;80.00;;;;;;4807347;29;20524;-91
2023/11/28 08:37:54;;;;;;;17.25;8.05;;;3.70;80.10;;;;;;4807209;29;20055;-90
2023/11/28 08:40:21;;;;;;;19.27;8.60;;;3.60;80.20;;;;;;4807684;29;20055;-91
2023/11/28 08:42:48;;;;;;;16.80;8.00;;;3.70;80.30;;;;;;4807277;29;20501;-91
2023/11/28 08:45:15;;;;;;;19.05;9.18;;;3.60;80.30;;;;;;4807127;29;20097;-91
2023/11/28 08:47:43;;;;;;;22.10;9.77;;;3.60;80.30;;;;;;4807298;29;20069;-91
2023/11/28 08:50:12;;;;;;;18.25;8.55;;;3.50;80.60;;;;;;4806842;29;20093;-90
2023/11/28 08:52:39;;;;;;;17.08;8.63;;;3.50;80.80;;;;;;4810769;29;20046;-90
2023/11/28 08:55:07;;;;;;;18.70;8.77;;;3.60;80.80;;;;;;4821267;29;20058;-90
2023/11/28 08:57:34;;;;;;;16.30;8.02;;;3.70;80.60;;;;;;4821306;29;20390;-91
2023/11/28 09:00:06;;;;;;;16.52;7.65;;;3.70;80.40;;;;;;4851772;29;20069;-90
2023/11/28 09:02:33;;;;;;;19.45;8.63;;;3.80;80.40;;;;;;4843166;29;20054;-93
2023/11/28 09:05:01;;;;;;;17.35;8.52;;;3.90;80.30;;;;;;4816321;29;20067;-90
2023/11/28 09:07:28;;;;;;;15.43;8.20;;;3.90;80.20;;;;;;4828064;29;20484;-92
2023/11/28 09:09:55;;;;;;;19.25;8.48;;;3.90;80.20;;;;;;4806539;29;20046;-93
2023/11/28 09:12:22;;;;;;;18.33;8.55;;;3.90;80.00;;;;;;4814101;29;20428;-90
2023/11/28 09:14:50;;;;;;;16.80;8.27;;;4.00;79.90;;;;;;4812915;29;20050;-90
2023/11/28 09:17:22;;;;;;;17.75;8.32;;;4.00;79.90;;;;;;4840585;29;20058;-90
2023/11/28 09:19:50;;;;;;;21.00;9.97;;;4.00;79.60;;;;;;4824961;29;20054;-90
2023/11/28 09:22:17;;;;;;;21.88;9.52;;;4.00;79.40;;;;;;4839685;29;20058;-90
2023/11/28 09:24:44;;;;;;;18.90;9.07;;;4.10;79.50;;;;;;4823814;29;20077;-90
2023/11/28 09:27:12;;;;;;;21.02;8.95;;;4.10;79.40;;;;;;4839512;29;20080;-90
2023/11/28 09:29:40;;;;;;;21.10;10.02;;;4.10;79.40;;;;;;4839504;29;20054;-90
2023/11/28 09:32:07;;;;;;;21.70;10.20;;;4.10;79.40;;;;;;4821403;29;20054;-90
2023/11/28 09:34:35;;;;;;;20.33;10.40;;;4.10;79.40;;;;;;4791305;29;20051;-90
2023/11/28 09:37:02;;;;;;;18.73;9.13;;;4.00;79.70;;;;;;4806460;29;20111;-90
2023/11/28 09:39:29;;;;;;;20.77;9.80;;;4.00;80.10;;;;;;4813865;29;20047;-95
2023/11/28 09:42:04;;;;;;;17.83;9.18;;;4.10;80.10;;;;;;4819387;29;20049;-90
2023/11/28 09:44:35;;;;;;;22.03;11.10;;;4.20;79.90;;;;;;4844477;29;20534;-90
2023/11/28 09:47:10;;;;;;;25.45;9.80;;;4.20;79.70;;;;;;4805863;29;20054;-90
2023/11/28 09:49:42;;;;;;;19.27;9.80;;;4.30;79.40;;;;;;4817632;29;20050;-90
2023/11/28 09:52:13;;;;;;;20.17;10.25;;;4.40;79.40;;;;;;4832334;29;20054;-90
2023/11/28 09:54:41;;;;;;;19.27;10.20;;;4.40;79.30;;;;;;4809277;29;20066;-90
2023/11/28 09:57:12;;;;;;;20.07;10.07;;;4.40;79.20;;;;;;4807087;29;20050;-91
2023/11/28 09:59:41;;;;;;;22.25;11.13;;;4.50;78.80;;;;;;4808687;29;20051;-90
2023/11/28 10:02:15;;;;;;;20.92;11.45;;;4.50;78.80;;;;;;4809834;29;20116;-91
2023/11/28 10:04:43;;;;;;;27.20;12.75;;;4.50;78.80;;;;;;4824045;29;20043;-90
2023/11/28 10:07:11;;;;;;;29.27;14.70;;;4.50;78.70;;;;;;4815860;29;20050;-90
2023/11/28 10:09:41;;;;;;;27.77;13.50;;;4.50;78.60;;;;;;4813639;29;20107;-91
2023/11/28 10:12:10;;;;;;;30.70;14.93;;;4.60;78.10;;;;;;4808162;29;20509;-90
2023/11/28 10:14:40;;;;;;;26.58;14.10;;;4.50;77.90;;;;;;4808571;29;20513;-90
2023/11/28 10:17:09;;;;;;;29.63;15.68;;;4.50;78.30;;;;;;4817200;29;20059;-90
2023/11/28 10:19:36;;;;;;;34.03;16.33;;;4.50;78.20;;;;;;4813837;29;20485;-86
2023/11/28 10:22:07;;;;;;;33.20;16.47;;;4.50;77.90;;;;;;4813426;29;20054;-86
2023/11/28 10:24:34;;;;;;;42.40;19.38;;;4.50;78.10;;;;;;4813258;29;20126;-86
2023/11/28 10:27:02;;;;;;;49.05;22.50;;;4.50;78.10;;;;;;4804198;29;20051;-86
2023/11/28 10:29:29;;;;;;;51.50;24.38;;;4.40;78.30;;;;;;4822225;29;20050;-87
2023/11/28 10:31:57;;;;;;;52.10;23.73;;;4.30;78.50;;;;;;4814799;29;20115;-85
2023/11/28 10:34:24;;;;;;;51.33;23.27;;;4.20;78.70;;;;;;4821864;29;20059;-86
2023/11/28 10:36:51;;;;;;;51.75;26.58;;;4.10;78.80;;;;;;4821205;29;20058;-86
2023/11/28 10:39:21;;;;;;;51.55;24.85;;;4.00;79.30;;;;;;4832465;29;20516;-87
2023/11/28 10:41:48;;;;;;;54.70;26.15;;;4.10;79.40;;;;;;4812703;29;20046;-89
2023/11/28 10:44:15;;;;;;;49.90;25.17;;;4.10;79.40;;;;;;4827320;29;20110;-89
2023/11/28 10:46:42;;;;;;;49.87;25.27;;;4.10;79.30;;;;;;4826719;29;20112;-90
2023/11/28 10:49:10;;;;;;;65.78;29.15;;;4.00;79.40;;;;;;4794093;29;20046;-89
2023/11/28 10:51:37;;;;;;;87.05;35.38;;;3.90;79.70;;;;;;4823893;29;20061;-89
2023/11/28 10:54:09;;;;;;;105.97;40.22;;;3.70;79.50;;;;;;4793825;29;20058;-89
2023/11/28 10:56:47;;;;;;;101.82;41.13;;;3.40;79.80;;;;;;4793886;29;20133;-89
2023/11/28 10:59:21;;;;;;;109.83;41.50;;;3.20;80.30;;;;;;4808731;29;20071;-89
2023/11/28 11:01:49;;;;;;;106.25;41.42;;;3.10;80.80;;;;;;4808906;29;20054;-89
2023/11/28 11:04:16;;;;;;;108.63;41.15;;;3.10;80.60;;;;;;4793819;29;20050;-89
2023/11/28 11:06:44;;;;;;;108.05;43.70;;;3.00;80.40;;;;;;4793754;29;20119;-89
2023/11/28 11:09:12;;;;;;;114.63;43.70;;;3.00;80.40;;;;;;4809369;29;20050;-89
2023/11/28 11:11:42;;;;;;;122.63;47.87;;;2.90;80.50;;;;;;4808962;29;20059;-89
2023/11/28 11:14:13;;;;;;;97.55;41.58;;;2.80;80.50;;;;;;4808801;29;20054;-88
2023/11/28 11:16:52;;;;;;;107.00;43.40;;;2.70;81.00;;;;;;4808906;29;20409;-89
2023/11/28 11:19:20;;;;;;;93.13;38.15;;;2.70;80.90;;;;;;4808754;29;20055;-90
2023/11/28 11:22:02;;;;;;;102.28;41.08;;;2.80;80.40;;;;;;4809118;29;20043;-89
2023/11/28 11:24:32;;;;;;;95.23;38.27;;;2.70;80.40;;;;;;4794023;29;20157;-89
2023/11/28 11:27:02;;;;;;;97.07;39.80;;;2.60;80.40;;;;;;4793388;29;20553;-89
2023/11/28 11:29:29;;;;;;;84.68;34.40;;;2.70;80.60;;;;;;4808079;29;20065;-89
2023/11/28 11:31:57;;;;;;;91.90;38.83;;;2.70;80.10;;;;;;4793524;29;20475;-89
2023/11/28 11:34:39;;;;;;;87.95;37.30;;;2.70;80.20;;;;;;4808264;29;20416;-89
2023/11/28 11:37:17;;;;;;;90.63;38.27;;;2.80;80.00;;;;;;4808321;29;20065;-90
2023/11/28 11:39:46;;;;;;;83.65;35.42;;;2.70;80.00;;;;;;4808094;29;20051;-90
2023/11/28 11:42:18;;;;;;;84.35;36.17;;;2.60;79.70;;;;;;4793145;29;20058;-90
2023/11/28 11:45:03;;;;;;;86.93;34.55;;;2.50;80.10;;;;;;4807895;29;20463;-90
2023/11/28 11:47:36;;;;;;;90.90;37.70;;;2.50;80.20;;;;;;4815445;29;20496;-89
2023/11/28 11:50:06;;;;;;;83.90;34.23;;;2.60;80.30;;;;;;4826044;29;20520;-90
2023/11/28 11:52:34;;;;;;;75.05;33.10;;;2.60;79.90;;;;;;4826110;29;20057;-90
2023/11/28 11:55:12;;;;;;;72.38;31.63;;;2.70;80.00;;;;;;4825995;29;20088;-90
2023/11/28 11:57:42;;;;;;;94.35;36.70;;;2.70;79.50;;;;;;4825925;29;20054;-89
2023/11/28 12:00:11;;;;;;;82.88;35.25;;;2.60;79.80;;;;;;4826088;29;20082;-89
2023/11/28 12:02:44;;;;;;;91.37;35.60;;;2.50;79.90;;;;;;4825914;29;20509;-89
2023/11/28 12:05:12;;;;;;;85.07;34.22;;;2.60;80.10;;;;;;4825772;29;20050;-90
2023/11/28 12:07:40;;;;;;;83.38;34.03;;;2.50;80.00;;;;;;4825686;29;20058;-90
2023/11/28 12:10:09;;;;;;;85.20;34.83;;;2.60;79.90;;;;;;4825613;29;20054;-90
2023/11/28 12:12:39;;;;;;;79.60;33.53;;;2.50;79.70;;;;;;4826030;29;20107;-90
2023/11/28 12:15:09;;;;;;;89.07;35.50;;;2.50;80.00;;;;;;4825807;29;20103;-88
2023/11/28 12:17:39;;;;;;;89.72;34.47;;;2.50;79.90;;;;;;4825786;29;20050;-90
2023/11/28 12:20:07;;;;;;;81.65;35.05;;;2.40;79.90;;;;;;4810407;29;20103;-90
2023/11/28 12:22:35;;;;;;;91.35;34.63;;;2.50;80.20;;;;;;4825802;29;20115;-90
2023/11/28 12:25:02;;;;;;;86.75;32.40;;;2.60;80.00;;;;;;4825432;29;20050;-90
2023/11/28 12:27:29;;;;;;;83.00;32.53;;;2.50;79.80;;;;;;4825672;29;20050;-90
2023/11/28 12:29:59;;;;;;;85.05;33.38;;;2.50;80.00;;;;;;4810442;29;20145;-90
2023/11/28 12:32:26;;;;;;;82.55;30.75;;;2.40;80.20;;;;;;4825542;29;20050;-90
2023/11/28 12:34:57;;;;;;;81.47;31.45;;;2.40;80.40;;;;;;4825576;29;20054;-90
2023/11/28 12:37:29;;;;;;;83.43;31.55;;;2.50;80.60;;;;;;4825282;29;20631;-90
2023/11/28 12:39:56;;;;;;;83.93;31.90;;;2.50;80.20;;;;;;4825100;29;20054;-90
2023/11/28 12:42:26;;;;;;;84.25;33.10;;;2.40;80.30;;;;;;4825070;29;20046;-90
2023/11/28 12:44:57;;;;;;;86.22;31.30;;;2.40;80.40;;;;;;4825214;29;20554;-90
2023/11/28 12:47:26;;;;;;;87.57;30.92;;;2.50;80.50;;;;;;4825124;29;20153;-90